createdAt,value
2023-05-13T00:01:19.206Z,8.43
2023-05-13T00:03:45.843Z,8.90
2023-05-13T00:06:13.018Z,8.83
2023-05-13T00:08:39.557Z,8.87
2023-05-13T00:11:06.527Z,9.07
2023-05-13T00:13:33.109Z,8.97
2023-05-13T00:15:59.681Z,8.60
2023-05-13T00:18:26.795Z,8.33
2023-05-13T00:20:53.455Z,8.83
2023-05-13T00:23:20.406Z,8.43
2023-05-13T00:25:47.005Z,9.00
2023-05-13T00:28:15.515Z,9.43
2023-05-13T00:30:43.864Z,8.67
2023-05-13T00:33:10.458Z,8.67
2023-05-13T00:35:37.051Z,8.57
2023-05-13T00:38:04.007Z,8.90
2023-05-13T00:40:31.046Z,7.97
2023-05-13T00:42:57.648Z,8.30
2023-05-13T00:45:24.215Z,8.13
2023-05-13T00:47:51.412Z,9.03
2023-05-13T00:50:18.124Z,8.13
2023-05-13T00:52:44.776Z,8.07
2023-05-13T00:55:11.406Z,8.43
2023-05-13T00:57:38.299Z,8.47
2023-05-13T01:00:05.977Z,8.53
2023-05-13T01:02:39.594Z,8.17
2023-05-13T01:05:15.107Z,8.40
2023-05-13T01:08:11.226Z,7.97
2023-05-13T01:10:44.771Z,8.50
2023-05-13T01:13:13.040Z,7.83
2023-05-13T01:15:47.706Z,8.47
2023-05-13T01:18:18.923Z,8.90
2023-05-13T01:20:46.361Z,8.20
2023-05-13T01:23:12.892Z,8.87
2023-05-13T01:25:40.711Z,8.53
2023-05-13T01:28:07.784Z,8.67
2023-05-13T01:30:34.862Z,8.60
2023-05-13T01:33:01.511Z,8.17
2023-05-13T01:35:28.905Z,8.83
2023-05-13T01:37:57.343Z,8.27
2023-05-13T01:40:32.376Z,8.30
2023-05-13T01:42:59.536Z,8.70
2023-05-13T01:45:27.785Z,8.20
2023-05-13T01:47:54.308Z,8.03
2023-05-13T01:50:21.022Z,8.13
2023-05-13T01:52:47.800Z,7.60
2023-05-13T01:55:15.082Z,8.50
2023-05-13T01:57:41.628Z,9.20
2023-05-13T02:00:08.584Z,7.87
2023-05-13T02:02:35.569Z,8.80
2023-05-13T02:05:02.481Z,8.87
2023-05-13T02:07:28.962Z,7.70
2023-05-13T02:09:59.847Z,8.63
2023-05-13T02:12:27.076Z,8.03
2023-05-13T02:14:54.165Z,8.97
2023-05-13T02:17:21.043Z,8.23
2023-05-13T02:19:47.558Z,7.90
2023-05-13T02:22:14.059Z,9.70
2023-05-13T02:24:40.756Z,8.73
2023-05-13T02:27:07.808Z,8.50
2023-05-13T02:29:34.709Z,8.90
2023-05-13T02:32:01.360Z,8.00
2023-05-13T02:34:27.858Z,8.80
2023-05-13T02:36:54.395Z,8.17
2023-05-13T02:39:21.159Z,8.30
2023-05-13T02:41:47.756Z,8.73
2023-05-13T02:44:14.639Z,7.97
2023-05-13T02:46:41.151Z,8.07
2023-05-13T02:49:07.883Z,7.57
2023-05-13T02:51:34.374Z,7.90
2023-05-13T02:54:00.926Z,7.50
2023-05-13T02:56:27.416Z,7.33
2023-05-13T02:58:56.554Z,8.70
2023-05-13T03:01:23.649Z,8.27
2023-05-13T03:03:52.399Z,7.80
2023-05-13T03:06:18.948Z,7.83
2023-05-13T03:08:45.470Z,8.67
2023-05-13T03:11:11.972Z,8.40
2023-05-13T03:13:38.434Z,7.93
2023-05-13T03:16:05.004Z,8.50
2023-05-13T03:18:32.948Z,9.63
2023-05-13T03:20:59.571Z,8.47
2023-05-13T03:23:26.448Z,8.93
2023-05-13T03:25:52.932Z,8.40
2023-05-13T03:28:19.445Z,8.07
2023-05-13T03:30:46.259Z,7.80
2023-05-13T03:33:12.948Z,7.80
2023-05-13T03:35:39.512Z,8.23
2023-05-13T03:38:06.038Z,7.80
2023-05-13T03:40:32.578Z,8.07
2023-05-13T03:43:01.333Z,7.77
2023-05-13T03:45:27.884Z,8.83
2023-05-13T03:47:54.569Z,8.67
2023-05-13T03:50:21.428Z,8.57
2023-05-13T03:52:48.111Z,7.90
2023-05-13T03:55:15.254Z,8.17
2023-05-13T03:57:42.653Z,8.40
2023-05-13T04:00:10.181Z,8.23
2023-05-13T04:02:36.770Z,8.50
2023-05-13T04:05:03.562Z,9.57
2023-05-13T04:07:30.088Z,7.83
2023-05-13T04:09:56.562Z,8.77
2023-05-13T04:12:49.025Z,8.43
2023-05-13T04:15:15.601Z,8.37
2023-05-13T04:17:44.617Z,7.87
2023-05-13T04:20:11.251Z,8.53
2023-05-13T04:22:37.745Z,8.60
2023-05-13T04:25:04.361Z,8.47
2023-05-13T04:27:30.868Z,8.77
2023-05-13T04:29:57.377Z,8.00
2023-05-13T04:32:24.035Z,8.70
2023-05-13T04:34:51.026Z,8.67
2023-05-13T04:37:17.642Z,8.70
2023-05-13T04:39:47.539Z,9.20
2023-05-13T04:42:14.584Z,8.17
2023-05-13T04:44:41.286Z,8.50
2023-05-13T04:47:07.780Z,8.87
2023-05-13T04:49:34.372Z,8.37
2023-05-13T04:52:02.034Z,9.10
2023-05-13T04:54:28.625Z,8.60
2023-05-13T04:56:55.200Z,8.83
2023-05-13T04:59:21.718Z,8.60
2023-05-13T05:01:48.292Z,7.97
2023-05-13T05:04:15.048Z,7.87
2023-05-13T05:06:41.714Z,8.80
2023-05-13T05:09:08.214Z,8.40
2023-05-13T05:11:34.699Z,8.70
2023-05-13T05:14:01.331Z,8.30
2023-05-13T05:16:27.866Z,8.27
2023-05-13T05:18:54.437Z,8.37
2023-05-13T05:21:21.644Z,8.97
2023-05-13T05:23:48.129Z,9.00
2023-05-13T05:26:15.017Z,8.63
2023-05-13T05:28:42.187Z,8.03
2023-05-13T05:31:09.857Z,8.63
2023-05-13T05:33:36.856Z,8.87
2023-05-13T05:36:03.545Z,8.73
2023-05-13T05:38:30.067Z,9.20
2023-05-13T05:40:56.613Z,9.77
2023-05-13T05:43:23.123Z,9.03
2023-05-13T05:45:49.652Z,9.57
2023-05-13T05:48:16.873Z,8.80
2023-05-13T05:50:43.473Z,8.53
2023-05-13T05:53:10.095Z,9.83
2023-05-13T05:55:36.622Z,10.37
2023-05-13T05:58:05.549Z,10.20
2023-05-13T06:00:33.376Z,9.17
2023-05-13T06:03:00.223Z,9.80
2023-05-13T06:05:26.877Z,9.40
2023-05-13T06:07:53.435Z,9.13
2023-05-13T06:10:20.111Z,9.90
2023-05-13T06:12:46.813Z,9.90
2023-05-13T06:15:13.440Z,8.63
2023-05-13T06:17:40.168Z,8.80
2023-05-13T06:20:07.136Z,8.27
2023-05-13T06:22:33.680Z,8.47
2023-05-13T06:25:00.319Z,8.30
2023-05-13T06:27:27.055Z,9.37
2023-05-13T06:36:22.971Z,8.70
2023-05-13T06:38:54.950Z,8.77
2023-05-13T06:41:21.671Z,8.93
2023-05-13T06:43:49.083Z,9.50
2023-05-13T06:46:15.748Z,9.00
2023-05-13T06:48:42.495Z,8.67
2023-05-13T06:51:09.048Z,9.00
2023-05-13T06:53:35.573Z,9.13
2023-05-13T06:56:02.170Z,8.43
2023-05-13T06:58:28.708Z,9.27
2023-05-13T07:00:55.281Z,7.80
2023-05-13T07:03:21.964Z,8.47
2023-05-13T07:05:48.554Z,8.97
2023-05-13T07:08:18.131Z,9.17
2023-05-13T07:10:45.219Z,8.13
2023-05-13T07:13:11.894Z,8.43
2023-05-13T07:15:38.611Z,8.10
2023-05-13T07:18:05.330Z,8.43
2023-05-13T07:20:31.911Z,7.83
2023-05-13T07:22:58.769Z,8.40
2023-05-13T07:25:25.320Z,8.97
2023-05-13T07:27:51.876Z,8.30
2023-05-13T07:30:18.694Z,8.57
2023-05-13T07:32:45.220Z,8.93
2023-05-13T07:35:11.783Z,8.57
2023-05-13T07:37:40.825Z,9.00
2023-05-13T07:40:10.877Z,7.93
2023-05-13T07:42:37.680Z,8.17
2023-05-13T07:45:04.920Z,8.50
2023-05-13T07:47:32.369Z,8.53
2023-05-13T07:52:39.905Z,7.47
2023-05-13T07:55:06.691Z,7.60
2023-05-13T07:57:34.287Z,8.10
2023-05-13T08:00:01.092Z,7.57
2023-05-13T08:02:27.767Z,7.37
2023-05-13T08:04:56.124Z,7.30
2023-05-13T08:07:23.381Z,7.30
2023-05-13T08:09:50.438Z,7.40
2023-05-13T08:12:17.567Z,7.37
2023-05-13T08:14:44.350Z,6.47
2023-05-13T08:17:10.994Z,6.47
2023-05-13T08:19:38.648Z,6.47
2023-05-13T08:22:05.695Z,5.77
2023-05-13T08:24:32.491Z,6.10
2023-05-13T08:27:02.949Z,5.87
2023-05-13T08:29:31.928Z,5.80
2023-05-13T08:31:59.050Z,5.63
2023-05-13T08:34:25.980Z,5.63
2023-05-13T08:36:52.704Z,4.97
2023-05-13T08:39:19.290Z,5.80
2023-05-13T08:41:46.389Z,6.00
2023-05-13T08:44:16.269Z,5.37
2023-05-13T08:46:47.524Z,5.90
2023-05-13T08:49:14.091Z,6.23
2023-05-13T08:51:41.270Z,6.10
2023-05-13T08:54:09.727Z,5.87
2023-05-13T08:56:36.717Z,5.93
2023-05-13T08:59:03.477Z,6.40
2023-05-13T09:01:30.835Z,5.40
2023-05-13T09:04:08.840Z,5.50
2023-05-13T09:06:35.570Z,5.80
2023-05-13T09:09:03.363Z,6.10
2023-05-13T09:11:29.923Z,5.10
2023-05-13T09:14:00.239Z,5.40
2023-05-13T09:16:28.305Z,4.70
2023-05-13T09:18:59.247Z,5.00
2023-05-13T09:21:26.993Z,4.43
2023-05-13T09:23:56.487Z,5.23
2023-05-13T09:26:29.874Z,4.77
2023-05-13T09:29:15.012Z,4.47
2023-05-13T09:31:41.710Z,4.70
2023-05-13T09:34:08.325Z,5.47
2023-05-13T09:36:35.088Z,4.63
2023-05-13T09:39:02.934Z,5.10
2023-05-13T09:41:31.346Z,5.23
2023-05-13T09:43:58.253Z,6.03
2023-05-13T09:46:25.392Z,3.90
2023-05-13T09:48:57.343Z,4.23
2023-05-13T09:51:31.113Z,4.50
2023-05-13T09:54:07.777Z,4.93
2023-05-13T09:56:35.588Z,4.90
2023-05-13T09:59:02.949Z,4.30
2023-05-13T10:01:29.944Z,4.17
2023-05-13T10:03:59.157Z,3.97
2023-05-13T10:06:26.725Z,4.37
2023-05-13T10:08:53.998Z,3.97
2023-05-13T10:11:21.695Z,3.80
2023-05-13T10:13:50.108Z,3.73
2023-05-13T10:16:18.655Z,4.20
2023-05-13T10:18:46.305Z,3.93
2023-05-13T10:21:13.059Z,3.50
2023-05-13T10:23:39.625Z,3.70
2023-05-13T10:26:06.519Z,3.70
2023-05-13T10:28:33.913Z,3.70
2023-05-13T10:31:00.638Z,4.23
2023-05-13T10:33:27.628Z,3.83
2023-05-13T10:36:00.382Z,3.80
2023-05-13T10:38:39.171Z,3.67
2023-05-13T10:41:06.156Z,3.63
2023-05-13T10:43:34.387Z,3.70
2023-05-13T10:46:02.510Z,3.47
2023-05-13T10:48:43.621Z,3.67
2023-05-13T10:51:13.640Z,3.30
2023-05-13T10:53:59.263Z,4.33
2023-05-13T10:56:27.979Z,4.10
2023-05-13T10:59:04.962Z,3.77
2023-05-13T11:01:35.761Z,3.80
2023-05-13T11:04:03.664Z,3.60
2023-05-13T11:06:39.261Z,4.00
2023-05-13T11:09:06.898Z,4.30
2023-05-13T11:11:36.101Z,3.70
2023-05-13T11:14:04.104Z,3.50
2023-05-13T11:16:30.689Z,3.53
2023-05-13T11:18:57.496Z,3.60
2023-05-13T11:21:35.117Z,3.50
2023-05-13T11:24:06.474Z,3.70
2023-05-13T11:26:46.724Z,3.47
2023-05-13T11:29:13.600Z,4.07
2023-05-13T11:31:51.191Z,3.77
2023-05-13T11:34:20.331Z,4.00
2023-05-13T11:36:47.990Z,3.87
2023-05-13T11:39:18.491Z,3.80
2023-05-13T11:41:49.325Z,3.53
2023-05-13T11:44:16.855Z,3.17
2023-05-13T11:46:55.221Z,3.90
2023-05-13T11:49:40.871Z,3.40
2023-05-13T11:52:09.016Z,3.53
2023-05-13T11:54:42.481Z,3.73
2023-05-13T11:57:15.475Z,3.97
2023-05-13T11:59:48.249Z,3.70
2023-05-13T12:02:15.078Z,3.73
2023-05-13T12:04:41.798Z,4.00
2023-05-13T12:07:11.419Z,3.60
2023-05-13T12:09:37.969Z,3.50
2023-05-13T12:12:04.946Z,3.67
2023-05-13T12:14:31.602Z,3.43
2023-05-13T12:16:58.153Z,3.00
2023-05-13T12:19:24.860Z,3.40
2023-05-13T12:21:51.845Z,3.30
2023-05-13T12:24:21.918Z,3.53
2023-05-13T12:26:48.988Z,3.37
2023-05-13T12:29:15.623Z,3.93
2023-05-13T12:31:43.407Z,3.70
2023-05-13T12:34:10.521Z,4.03
2023-05-13T12:36:38.290Z,4.00
2023-05-13T12:39:11.773Z,3.70
2023-05-13T12:41:39.266Z,3.67
2023-05-13T12:44:09.726Z,4.07
2023-05-13T12:46:36.528Z,3.83
2023-05-13T12:49:04.434Z,3.80
2023-05-13T12:51:31.541Z,3.93
2023-05-13T12:53:58.531Z,3.77
2023-05-13T12:56:28.562Z,4.03
2023-05-13T12:58:55.225Z,3.90
2023-05-13T13:01:22.136Z,3.50
2023-05-13T13:03:48.972Z,3.50
2023-05-13T13:06:15.916Z,3.67
2023-05-13T13:08:42.514Z,4.50
2023-05-13T13:11:09.594Z,3.50
2023-05-13T13:13:38.961Z,3.70
2023-05-13T13:16:06.403Z,4.40
2023-05-13T13:18:33.261Z,3.80
2023-05-13T13:20:59.872Z,3.83
2023-05-13T13:23:26.640Z,4.03
2023-05-13T13:25:53.220Z,3.40
2023-05-13T13:28:19.725Z,3.67
2023-05-13T13:30:47.342Z,3.87
2023-05-13T13:33:15.235Z,3.80
2023-05-13T13:35:43.197Z,3.73
2023-05-13T13:38:09.981Z,3.50
2023-05-13T13:40:36.928Z,3.73
2023-05-13T13:43:04.061Z,3.90
2023-05-13T13:45:30.593Z,4.20
2023-05-13T13:47:57.253Z,3.60
2023-05-13T13:50:26.632Z,3.60
2023-05-13T13:52:53.141Z,3.40
2023-05-13T13:55:20.733Z,3.97
2023-05-13T13:57:47.613Z,4.10
2023-05-13T14:00:15.040Z,4.17
2023-05-13T14:02:42.365Z,3.70
2023-05-13T14:05:09.075Z,3.87
2023-05-13T14:07:36.447Z,3.80
2023-05-13T14:10:03.653Z,3.40
2023-05-13T14:12:30.171Z,3.67
2023-05-13T14:14:57.030Z,3.50
2023-05-13T14:17:23.648Z,3.17
2023-05-13T14:19:55.587Z,3.90
2023-05-13T14:22:23.770Z,3.03
2023-05-13T14:24:53.241Z,8.53
2023-05-13T14:27:20.203Z,7.23
2023-05-13T14:29:48.817Z,4.07
2023-05-13T14:32:15.484Z,3.93
2023-05-13T14:34:42.447Z,5.30
2023-05-13T14:37:08.973Z,5.40
2023-05-13T14:39:35.467Z,3.40
2023-05-13T14:42:02.053Z,5.33
2023-05-13T14:44:28.596Z,3.70
2023-05-13T14:46:55.123Z,3.30
2023-05-13T14:49:21.697Z,3.97
2023-05-13T14:51:48.281Z,3.70
2023-05-13T14:54:14.827Z,3.70
2023-05-13T14:56:41.649Z,3.53
2023-05-13T14:59:08.143Z,4.13
2023-05-13T15:01:34.639Z,4.17
2023-05-13T15:04:01.611Z,5.10
2023-05-13T15:06:29.259Z,4.60
2023-05-13T15:08:56.695Z,4.50
2023-05-13T15:11:25.799Z,4.03
2023-05-13T15:13:52.280Z,4.67
2023-05-13T15:16:18.817Z,5.23
2023-05-13T15:18:45.569Z,4.63
2023-05-13T15:21:12.128Z,5.80
2023-05-13T15:23:38.689Z,4.70
2023-05-13T15:26:05.213Z,4.60
2023-05-13T15:28:31.698Z,4.67
2023-05-13T15:30:58.250Z,3.93
2023-05-13T15:33:27.150Z,4.10
2023-05-13T15:35:53.686Z,3.67
2023-05-13T15:38:20.651Z,4.13
2023-05-13T15:40:47.574Z,5.20
2023-05-13T15:43:14.309Z,3.43
2023-05-13T15:45:40.897Z,3.57
2023-05-13T15:48:07.549Z,3.13
2023-05-13T15:50:34.153Z,3.70
2023-05-13T15:53:00.998Z,3.10
2023-05-13T15:55:27.542Z,2.77
2023-05-13T15:57:54.018Z,2.90
2023-05-13T16:00:20.699Z,2.97
2023-05-13T16:02:47.549Z,3.30
2023-05-13T16:05:15.742Z,2.80
2023-05-13T16:07:42.565Z,3.03
2023-05-13T16:10:09.268Z,3.00
2023-05-13T16:12:36.228Z,2.80
2023-05-13T16:15:02.930Z,2.87
2023-05-13T16:17:29.561Z,2.87
2023-05-13T16:19:56.163Z,3.33
2023-05-13T16:22:36.222Z,2.90
2023-05-13T16:25:04.927Z,2.87
2023-05-13T16:27:32.270Z,2.90
2023-05-13T16:29:59.114Z,2.50
2023-05-13T16:32:25.758Z,2.70
2023-05-13T16:34:52.342Z,4.17
2023-05-13T16:37:18.848Z,3.30
2023-05-13T16:39:45.405Z,6.40
2023-05-13T16:42:11.984Z,3.33
2023-05-13T16:44:38.806Z,3.87
2023-05-13T16:47:11.101Z,3.20
2023-05-13T16:49:37.726Z,3.00
2023-05-13T16:52:04.809Z,2.90
2023-05-13T16:54:31.450Z,2.47
2023-05-13T16:57:00.422Z,2.63
2023-05-13T16:59:27.770Z,2.43
2023-05-13T17:01:54.366Z,2.87
2023-05-13T17:04:21.314Z,2.70
2023-05-13T17:06:53.861Z,2.40
2023-05-13T17:09:20.443Z,2.90
2023-05-13T17:11:46.958Z,2.40
2023-05-13T17:14:13.656Z,2.20
2023-05-13T17:16:42.157Z,2.73
2023-05-13T17:19:09.086Z,2.60
2023-05-13T17:21:35.946Z,6.37
2023-05-13T17:24:10.057Z,6.80
2023-05-13T17:26:38.669Z,7.00
2023-05-13T17:29:05.660Z,7.83
2023-05-13T17:31:32.493Z,8.63
2023-05-13T17:33:59.056Z,9.57
2023-05-13T17:36:25.602Z,9.70
2023-05-13T17:38:52.180Z,7.60
2023-05-13T17:41:18.659Z,6.77
2023-05-13T17:43:45.338Z,6.50
2023-05-13T17:46:11.867Z,9.00
2023-05-13T17:48:38.587Z,10.63
2023-05-13T17:51:05.128Z,9.93
2023-05-13T17:53:34.364Z,8.80
2023-05-13T17:56:01.407Z,7.80
2023-05-13T17:58:27.942Z,7.03
2023-05-13T18:00:54.530Z,4.60
2023-05-13T18:03:21.989Z,4.70
2023-05-13T18:05:48.751Z,5.50
2023-05-13T18:08:15.331Z,4.80
2023-05-13T18:10:41.866Z,4.20
2023-05-13T18:13:08.461Z,4.60
2023-05-13T18:15:34.987Z,5.03
2023-05-13T18:18:03.687Z,4.77
2023-05-13T18:20:30.785Z,5.03
2023-05-13T18:22:57.444Z,5.27
2023-05-13T18:25:23.934Z,5.13
2023-05-13T18:27:50.893Z,6.17
2023-05-13T18:30:17.922Z,5.43
2023-05-13T18:32:44.509Z,5.27
2023-05-13T18:35:11.216Z,5.53
2023-05-13T18:37:37.768Z,4.70
2023-05-13T18:40:04.496Z,5.00
2023-05-13T18:42:31.169Z,5.07
2023-05-13T18:44:57.801Z,5.20
2023-05-13T18:47:24.380Z,6.00
2023-05-13T18:49:50.948Z,6.23
2023-05-13T18:52:17.486Z,5.73
2023-05-13T18:54:44.064Z,5.97
2023-05-13T18:57:10.570Z,6.40
2023-05-13T18:59:37.114Z,7.43
2023-05-13T19:02:03.769Z,9.00
2023-05-13T19:04:30.520Z,9.53
2023-05-13T19:06:57.244Z,7.57
2023-05-13T19:09:23.782Z,7.53
2023-05-13T19:11:55.002Z,6.87
2023-05-13T19:14:21.602Z,6.67
2023-05-13T19:16:48.266Z,7.20
2023-05-13T19:19:14.983Z,7.23
2023-05-13T19:21:41.668Z,7.97
2023-05-13T19:24:08.232Z,7.47
2023-05-13T19:26:35.168Z,8.20
2023-05-13T19:29:02.048Z,8.33
2023-05-13T19:31:28.754Z,8.23
2023-05-13T19:33:55.508Z,7.70
2023-05-13T19:36:23.890Z,7.97
2023-05-13T19:38:50.592Z,7.50
2023-05-13T19:41:20.239Z,8.03
2023-05-13T19:43:47.011Z,8.17
2023-05-13T19:46:13.541Z,8.07
2023-05-13T19:48:40.076Z,7.90
2023-05-13T19:51:06.677Z,8.10
2023-05-13T19:53:33.378Z,8.73
2023-05-13T19:56:00.042Z,7.97
2023-05-13T19:58:26.933Z,8.97
2023-05-13T20:00:53.775Z,9.87
2023-05-13T20:03:21.134Z,9.30
2023-05-13T20:05:50.497Z,10.20
2023-05-13T20:08:17.017Z,10.03
2023-05-13T20:10:43.575Z,9.80
2023-05-13T20:13:10.122Z,9.17
2023-05-13T20:15:36.638Z,8.93
2023-05-13T20:18:03.163Z,9.60
2023-05-13T20:20:29.714Z,10.00
2023-05-13T20:22:56.260Z,10.60
2023-05-13T20:25:22.869Z,10.27
2023-05-13T20:27:50.037Z,10.07
2023-05-13T20:30:17.496Z,10.07
2023-05-13T20:32:44.039Z,10.37
2023-05-13T20:35:10.635Z,10.23
2023-05-13T20:37:37.164Z,9.33
2023-05-13T20:40:04.725Z,9.97
2023-05-13T20:42:31.310Z,10.50
2023-05-13T20:44:57.827Z,9.60
2023-05-13T20:47:24.436Z,10.60
2023-05-13T20:49:50.969Z,10.37
2023-05-13T20:52:17.692Z,10.53
2023-05-13T20:54:44.300Z,10.43
2023-05-13T20:57:13.359Z,10.10
2023-05-13T20:59:40.022Z,9.23
2023-05-13T21:02:12.564Z,9.70
2023-05-13T21:04:39.860Z,9.63
2023-05-13T21:07:07.005Z,9.30
2023-05-13T21:09:33.588Z,10.20
2023-05-13T21:12:00.159Z,9.30
2023-05-13T21:14:26.734Z,9.17
2023-05-13T21:16:53.278Z,9.40
2023-05-13T21:19:23.798Z,9.20
2023-05-13T21:21:54.883Z,9.73
2023-05-13T21:24:21.460Z,9.53
2023-05-13T21:26:49.268Z,9.10
2023-05-13T21:32:01.320Z,10.10
2023-05-13T21:34:42.835Z,9.70
2023-05-13T21:37:12.506Z,9.80
2023-05-13T21:39:42.096Z,10.13
2023-05-13T21:42:24.306Z,10.23
2023-05-13T21:45:07.144Z,9.87
2023-05-13T21:47:39.489Z,11.53
2023-05-13T21:50:24.466Z,11.27
2023-05-13T21:53:19.479Z,10.93
2023-05-13T21:58:55.174Z,10.07
2023-05-13T22:01:21.795Z,9.67
2023-05-13T22:03:48.401Z,10.30
2023-05-13T22:06:14.967Z,10.00
2023-05-13T22:08:41.560Z,9.23
2023-05-13T22:11:08.210Z,9.13
2023-05-13T22:13:34.754Z,9.50
2023-05-13T22:16:01.294Z,9.30
2023-05-13T22:18:28.012Z,9.60
2023-05-13T22:20:54.632Z,9.43
2023-05-13T22:23:21.147Z,9.33
2023-05-13T22:25:48.554Z,8.90
2023-05-13T22:28:15.151Z,9.20
2023-05-13T22:30:41.677Z,9.10
2023-05-13T22:33:08.270Z,9.17
2023-05-13T22:35:36.662Z,9.30
2023-05-13T22:38:06.279Z,9.90
2023-05-13T22:40:32.779Z,9.80
2023-05-13T22:42:59.330Z,9.17
2023-05-13T22:45:25.862Z,10.23
2023-05-13T22:47:52.516Z,9.37
2023-05-13T22:50:19.118Z,9.40
2023-05-13T22:52:45.722Z,10.40
2023-05-13T22:55:12.225Z,9.50
2023-05-13T22:57:38.892Z,9.67
2023-05-13T23:00:06.091Z,8.60
2023-05-13T23:02:32.683Z,9.33
2023-05-13T23:04:59.258Z,9.27
2023-05-13T23:07:25.992Z,10.03
2023-05-13T23:09:52.542Z,10.23
2023-05-13T23:12:19.162Z,9.47
2023-05-13T23:14:45.911Z,9.80
2023-05-13T23:17:12.379Z,10.10
2023-05-13T23:19:39.057Z,9.73
2023-05-13T23:22:05.650Z,10.07
2023-05-13T23:24:32.329Z,9.23
2023-05-13T23:26:58.818Z,9.73
2023-05-13T23:29:27.741Z,9.67
2023-05-13T23:31:55.507Z,10.10
2023-05-13T23:34:22.142Z,9.77
2023-05-13T23:36:48.702Z,9.57
2023-05-13T23:39:15.222Z,9.80
2023-05-13T23:41:44.297Z,9.70
2023-05-13T23:44:12.013Z,8.67
2023-05-13T23:46:38.549Z,9.67
2023-05-13T23:49:05.110Z,9.10
2023-05-13T23:51:32.229Z,8.77
2023-05-13T23:53:59.939Z,9.83
2023-05-13T23:56:26.634Z,9.70
2023-05-13T23:58:53.322Z,8.57
